createdAt,value
2023-03-11T00:00:31.756Z,47.45
2023-03-11T00:03:01.465Z,47.88
2023-03-11T00:05:34.595Z,47.03
2023-03-11T00:08:03.024Z,47.08
2023-03-11T00:10:36.211Z,47.14
2023-03-11T00:13:05.500Z,47.76
2023-03-11T00:15:34.259Z,47.78
2023-03-11T00:18:02.213Z,47.70
2023-03-11T00:20:32.318Z,47.93
2023-03-11T00:23:00.743Z,48.35
2023-03-11T00:25:30.370Z,48.64
2023-03-11T00:27:58.133Z,48.24
2023-03-11T00:30:26.927Z,48.57
2023-03-11T00:32:56.993Z,48.71
2023-03-11T00:35:30.154Z,49.08
2023-03-11T00:38:06.900Z,49.39
2023-03-11T00:40:35.897Z,49.12
2023-03-11T00:43:03.859Z,49.76
2023-03-11T00:45:31.796Z,49.59
2023-03-11T00:47:59.130Z,49.05
2023-03-11T00:50:29.943Z,48.97
2023-03-11T00:52:58.413Z,49.60
2023-03-11T00:55:29.635Z,49.37
2023-03-11T00:58:00.484Z,50.06
2023-03-11T01:00:32.481Z,49.80
2023-03-11T01:03:00.897Z,49.97
2023-03-11T01:05:31.423Z,49.83
2023-03-11T01:07:59.764Z,49.79
2023-03-11T01:10:29.121Z,49.70
2023-03-11T01:12:56.704Z,49.61
2023-03-11T01:15:36.204Z,49.19
2023-03-11T01:18:04.210Z,49.34
2023-03-11T01:20:34.918Z,49.50
2023-03-11T01:23:02.246Z,49.18
2023-03-11T01:25:29.867Z,49.48
2023-03-11T01:27:59.189Z,49.57
2023-03-11T01:30:27.884Z,49.52
2023-03-11T01:32:57.216Z,49.55
2023-03-11T01:35:26.363Z,49.49
2023-03-11T01:37:54.663Z,49.89
2023-03-11T01:40:31.002Z,50.04
2023-03-11T01:43:01.452Z,50.21
2023-03-11T01:45:51.549Z,50.31
2023-03-11T01:48:22.608Z,50.13
2023-03-11T01:50:50.890Z,50.41
2023-03-11T01:53:18.908Z,50.88
2023-03-11T01:55:48.724Z,50.80
2023-03-11T01:58:20.850Z,51.19
2023-03-11T02:00:48.496Z,51.35
2023-03-11T02:03:24.482Z,51.21
2023-03-11T02:05:53.872Z,51.44
2023-03-11T02:08:21.559Z,51.01
2023-03-11T02:10:51.804Z,50.81
2023-03-11T02:13:20.307Z,51.30
2023-03-11T02:15:47.801Z,51.86
2023-03-11T02:18:18.603Z,51.40
2023-03-11T02:20:55.389Z,51.42
2023-03-11T02:23:28.835Z,52.01
2023-03-11T02:26:04.771Z,51.48
2023-03-11T02:28:36.032Z,52.07
2023-03-11T02:31:03.695Z,53.32
2023-03-11T02:33:32.953Z,54.46
2023-03-11T02:36:00.480Z,54.55
2023-03-11T02:38:27.966Z,53.78
2023-03-11T02:41:01.989Z,54.49
2023-03-11T02:43:41.934Z,54.88
2023-03-11T02:46:12.426Z,55.71
2023-03-11T02:48:40.410Z,55.97
2023-03-11T02:51:07.889Z,55.97
2023-03-11T02:53:43.608Z,55.57
2023-03-11T02:56:11.109Z,55.60
2023-03-11T02:58:38.948Z,55.80
2023-03-11T03:01:06.381Z,55.75
2023-03-11T03:03:34.637Z,56.01
2023-03-11T03:06:02.315Z,56.35
2023-03-11T03:08:29.584Z,56.47
2023-03-11T03:10:57.184Z,56.01
2023-03-11T03:13:24.445Z,55.73
2023-03-11T03:15:52.012Z,56.37
2023-03-11T03:18:19.290Z,55.98
2023-03-11T03:20:46.801Z,55.96
2023-03-11T03:23:14.917Z,54.92
2023-03-11T03:25:44.140Z,54.56
2023-03-11T03:28:13.250Z,55.24
2023-03-11T03:30:44.381Z,55.65
2023-03-11T03:33:13.037Z,55.47
2023-03-11T03:35:43.481Z,55.43
2023-03-11T03:38:22.738Z,55.25
2023-03-11T03:40:52.347Z,55.10
2023-03-11T03:43:21.887Z,56.56
2023-03-11T03:46:01.065Z,56.32
2023-03-11T03:48:33.244Z,57.75
2023-03-11T03:51:09.002Z,58.88
2023-03-11T03:53:40.498Z,58.58
2023-03-11T03:56:11.206Z,58.34
2023-03-11T03:58:39.066Z,58.38
2023-03-11T04:01:08.622Z,58.55
2023-03-11T04:03:38.222Z,58.94
2023-03-11T04:06:21.718Z,58.26
2023-03-11T04:08:57.102Z,58.45
2023-03-11T04:11:31.521Z,57.45
2023-03-11T04:13:58.920Z,58.78
2023-03-11T04:16:26.745Z,59.08
2023-03-11T04:19:02.064Z,58.46
2023-03-11T04:21:29.469Z,58.60
2023-03-11T04:23:57.317Z,58.16
2023-03-11T04:26:30.831Z,57.65
2023-03-11T04:28:58.414Z,57.64
2023-03-11T04:31:28.016Z,58.27
2023-03-11T04:33:56.274Z,59.58
2023-03-11T04:36:23.676Z,59.49
2023-03-11T04:38:52.220Z,59.32
2023-03-11T04:41:20.889Z,60.30
2023-03-11T04:43:48.324Z,59.67
2023-03-11T04:46:15.885Z,59.40
2023-03-11T04:48:43.622Z,59.15
2023-03-11T04:51:10.953Z,60.76
2023-03-11T04:53:38.232Z,60.88
2023-03-11T04:56:05.927Z,61.01
2023-03-11T04:58:34.763Z,62.46
2023-03-11T05:01:02.196Z,61.75
2023-03-11T05:03:29.770Z,61.69
2023-03-11T05:05:57.139Z,61.66
2023-03-11T05:08:26.329Z,60.81
2023-03-11T05:10:54.345Z,60.76
2023-03-11T05:13:23.159Z,61.66
2023-03-11T05:15:52.583Z,62.18
2023-03-11T05:18:19.922Z,62.24
2023-03-11T05:20:48.282Z,61.93
2023-03-11T05:23:16.499Z,61.18
2023-03-11T05:25:44.513Z,62.24
2023-03-11T05:28:12.184Z,62.51
2023-03-11T05:30:45.294Z,62.95
2023-03-11T05:33:13.032Z,63.92
2023-03-11T05:35:40.616Z,64.92
2023-03-11T05:38:08.284Z,64.49
2023-03-11T05:40:35.912Z,64.67
2023-03-11T05:43:06.055Z,65.43
2023-03-11T05:45:37.868Z,65.33
2023-03-11T05:48:08.634Z,65.81
2023-03-11T05:50:38.357Z,66.46
2023-03-11T05:53:05.975Z,66.44
2023-03-11T05:55:33.310Z,66.46
2023-03-11T05:58:01.369Z,66.65
2023-03-11T06:00:29.568Z,66.39
2023-03-11T06:02:59.350Z,66.77
2023-03-11T06:05:26.939Z,66.45
2023-03-11T06:07:55.734Z,66.65
2023-03-11T06:10:23.816Z,66.77
2023-03-11T06:12:51.176Z,66.53
2023-03-11T06:15:25.602Z,66.69
2023-03-11T06:17:53.875Z,66.72
2023-03-11T06:20:21.308Z,66.99
2023-03-11T06:22:49.736Z,67.00
2023-03-11T06:25:17.778Z,67.22
2023-03-11T06:27:51.634Z,67.05
2023-03-11T06:30:20.571Z,67.02
2023-03-11T06:33:13.033Z,66.56
2023-03-11T06:35:41.379Z,58.44
2023-03-11T06:38:09.405Z,51.55
2023-03-11T06:40:38.740Z,46.57
2023-03-11T06:43:08.461Z,45.62
2023-03-11T06:45:39.334Z,42.62
2023-03-11T06:48:06.947Z,41.27
2023-03-11T06:50:36.171Z,40.36
2023-03-11T06:53:06.643Z,39.42
2023-03-11T06:55:35.710Z,38.81
2023-03-11T06:58:05.636Z,38.23
2023-03-11T07:00:33.696Z,39.27
2023-03-11T07:03:04.020Z,36.80
2023-03-11T07:05:31.872Z,35.76
2023-03-11T07:08:04.853Z,35.56
2023-03-11T07:10:32.178Z,34.86
2023-03-11T07:12:59.802Z,34.75
2023-03-11T07:15:27.149Z,34.49
2023-03-11T07:17:54.793Z,32.57
2023-03-11T07:20:22.900Z,32.54
2023-03-11T07:22:50.305Z,33.82
2023-03-11T07:25:17.700Z,35.19
2023-03-11T07:27:45.056Z,35.28
2023-03-11T07:30:12.917Z,35.30
2023-03-11T07:32:43.049Z,34.52
2023-03-11T07:35:10.452Z,34.74
2023-03-11T07:37:37.740Z,33.84
2023-03-11T07:40:05.423Z,33.47
2023-03-11T07:42:34.863Z,34.23
2023-03-11T07:45:02.163Z,36.32
2023-03-11T07:47:29.940Z,39.24
2023-03-11T07:50:00.204Z,42.02
2023-03-11T07:52:31.292Z,41.83
2023-03-11T07:54:59.560Z,44.47
2023-03-11T07:57:26.877Z,45.54
2023-03-11T07:59:54.145Z,47.24
2023-03-11T08:02:21.462Z,49.48
2023-03-11T08:04:48.853Z,51.56
2023-03-11T08:07:16.226Z,51.18
2023-03-11T08:09:43.534Z,51.67
2023-03-11T08:12:10.832Z,52.60
2023-03-11T08:14:39.626Z,51.54
2023-03-11T08:17:06.986Z,51.85
2023-03-11T08:19:34.301Z,52.83
2023-03-11T08:22:05.087Z,54.40
2023-03-11T08:24:33.758Z,54.79
2023-03-11T08:27:03.237Z,56.66
2023-03-11T08:29:30.636Z,57.33
2023-03-11T08:31:58.038Z,56.62
2023-03-11T08:34:27.615Z,54.62
2023-03-11T08:36:55.315Z,55.42
2023-03-11T08:39:23.971Z,58.35
2023-03-11T08:41:51.247Z,58.75
2023-03-11T08:44:18.577Z,59.43
2023-03-11T08:46:46.060Z,58.75
2023-03-11T08:49:13.414Z,59.79
2023-03-11T08:51:40.745Z,59.93
2023-03-11T08:54:08.371Z,59.86
2023-03-11T08:56:35.660Z,55.19
2023-03-11T08:59:03.109Z,46.36
2023-03-11T09:01:30.525Z,41.17
2023-03-11T09:03:58.046Z,38.31
2023-03-11T09:06:25.735Z,36.71
2023-03-11T09:08:53.098Z,34.76
2023-03-11T09:11:22.452Z,33.87
2023-03-11T09:13:50.358Z,34.74
2023-03-11T09:16:20.816Z,33.90
2023-03-11T09:18:48.623Z,33.96
2023-03-11T09:21:15.946Z,35.70
2023-03-11T09:23:44.465Z,36.48
2023-03-11T09:26:14.003Z,35.59
2023-03-11T09:28:42.268Z,36.51
2023-03-11T09:31:09.815Z,36.19
2023-03-11T09:33:40.055Z,37.01
2023-03-11T09:36:08.376Z,36.46
2023-03-11T09:38:35.691Z,38.95
2023-03-11T09:41:11.201Z,38.66
2023-03-11T09:43:41.501Z,38.90
2023-03-11T09:46:34.351Z,37.56
2023-03-11T09:49:17.963Z,37.45
2023-03-11T09:51:59.519Z,37.63
2023-03-11T09:54:30.684Z,37.46
2023-03-11T09:57:01.205Z,37.94
2023-03-11T09:59:32.627Z,37.81
2023-03-11T10:02:03.033Z,37.89
2023-03-11T10:04:42.269Z,36.57
2023-03-11T10:07:22.151Z,37.34
2023-03-11T10:09:57.645Z,36.96
2023-03-11T10:12:48.901Z,40.40
2023-03-11T10:15:42.252Z,43.66
2023-03-11T10:18:24.435Z,46.64
2023-03-11T10:21:15.977Z,49.66
2023-03-11T10:24:19.051Z,47.67
2023-03-11T10:26:58.328Z,47.82
2023-03-11T10:29:45.027Z,49.35
2023-03-11T10:32:34.940Z,50.75
2023-03-11T10:35:08.022Z,53.05
2023-03-11T10:37:49.151Z,54.81
2023-03-11T10:40:26.594Z,57.29
2023-03-11T10:42:57.108Z,57.32
2023-03-11T10:45:25.561Z,58.59
2023-03-11T10:47:52.885Z,59.03
2023-03-11T10:50:20.539Z,60.05
2023-03-11T10:53:08.940Z,59.85
2023-03-11T10:55:44.652Z,60.42
2023-03-11T10:58:18.176Z,60.45
2023-03-11T11:00:45.806Z,60.79
2023-03-11T11:03:21.750Z,59.52
2023-03-11T11:06:19.449Z,59.01
2023-03-11T11:08:47.116Z,55.53
2023-03-11T11:11:23.277Z,55.06
2023-03-11T11:13:58.716Z,55.21
2023-03-11T11:16:27.747Z,55.16
2023-03-11T11:19:09.266Z,51.49
2023-03-11T11:21:48.710Z,49.53
2023-03-11T11:24:24.589Z,48.42
2023-03-11T11:27:18.542Z,52.14
2023-03-11T11:29:48.998Z,53.99
2023-03-11T11:32:19.709Z,52.42
2023-03-11T11:35:20.439Z,51.63
2023-03-11T11:37:54.338Z,49.34
2023-03-11T11:40:31.184Z,52.21
2023-03-11T11:43:06.028Z,50.80
2023-03-11T11:45:38.257Z,47.68
2023-03-11T11:48:21.861Z,46.14
2023-03-11T11:50:53.887Z,47.04
2023-03-11T11:53:43.068Z,46.85
2023-03-11T11:56:10.316Z,47.22
2023-03-11T11:58:40.932Z,48.06
2023-03-11T12:01:16.415Z,47.18
2023-03-11T12:04:11.288Z,46.63
2023-03-11T12:07:00.026Z,46.60
2023-03-11T12:09:55.246Z,47.23
2023-03-11T12:13:17.525Z,45.79
2023-03-11T12:16:15.119Z,46.98
2023-03-11T12:19:05.661Z,45.75
2023-03-11T12:21:51.386Z,46.88
2023-03-11T12:24:45.022Z,47.80
2023-03-11T12:27:26.524Z,47.52
2023-03-11T12:30:05.206Z,46.92
2023-03-11T12:32:37.625Z,46.58
2023-03-11T12:35:24.515Z,47.33
2023-03-11T12:38:13.285Z,49.32
2023-03-11T12:40:59.184Z,46.01
2023-03-11T12:43:35.121Z,45.77
2023-03-11T12:46:07.424Z,46.41
2023-03-11T12:48:49.697Z,45.02
2023-03-11T12:51:37.385Z,44.58
2023-03-11T12:54:31.131Z,44.94
2023-03-11T12:57:06.188Z,44.20
2023-03-11T13:00:18.279Z,45.68
2023-03-11T13:03:07.189Z,45.38
2023-03-11T13:06:05.559Z,43.92
2023-03-11T13:08:46.705Z,42.82
2023-03-11T13:11:28.577Z,41.96
2023-03-11T13:14:09.316Z,42.64
2023-03-11T13:16:37.658Z,41.99
2023-03-11T13:19:23.717Z,40.97
2023-03-11T13:21:51.109Z,40.77
2023-03-11T13:24:27.967Z,42.18
2023-03-11T13:27:07.296Z,42.43
2023-03-11T13:29:52.045Z,41.75
2023-03-11T13:32:45.588Z,40.92
2023-03-11T13:36:07.434Z,40.67
2023-03-11T13:38:34.817Z,40.38
2023-03-11T13:41:03.771Z,40.17
2023-03-11T13:43:31.042Z,39.39
2023-03-11T13:46:03.915Z,40.52
2023-03-11T13:48:37.674Z,41.58
2023-03-11T13:51:13.747Z,41.77
2023-03-11T13:53:47.545Z,41.33
2023-03-11T13:56:25.743Z,41.06
2023-03-11T13:58:53.519Z,39.95
2023-03-11T14:01:21.255Z,40.99
2023-03-11T14:03:48.677Z,40.35
2023-03-11T14:06:19.837Z,40.72
2023-03-11T14:08:55.607Z,40.37
2023-03-11T14:11:29.709Z,41.61
2023-03-11T14:13:57.117Z,41.14
2023-03-11T14:16:43.919Z,42.60
2023-03-11T14:19:17.201Z,40.30
2023-03-11T14:21:46.252Z,40.67
2023-03-11T14:24:19.222Z,41.03
2023-03-11T14:26:50.017Z,43.75
2023-03-11T14:29:24.190Z,41.46
2023-03-11T14:31:51.655Z,41.49
2023-03-11T14:34:25.414Z,42.16
2023-03-11T14:36:58.908Z,43.51
2023-03-11T14:39:37.637Z,44.56
2023-03-11T14:42:37.126Z,45.33
2023-03-11T14:45:33.074Z,45.87
2023-03-11T14:48:22.390Z,47.94
2023-03-11T14:50:50.293Z,48.33
2023-03-11T14:53:19.585Z,49.49
2023-03-11T14:55:53.506Z,50.57
2023-03-11T14:58:26.033Z,50.46
2023-03-11T15:01:00.536Z,51.59
2023-03-11T15:03:31.837Z,51.87
2023-03-11T15:06:05.600Z,53.41
2023-03-11T15:08:42.564Z,53.30
2023-03-11T15:11:12.896Z,52.89
2023-03-11T15:13:42.466Z,52.57
2023-03-11T15:16:35.807Z,53.49
2023-03-11T15:19:27.953Z,53.58
2023-03-11T15:21:59.697Z,54.41
2023-03-11T15:24:33.291Z,54.65
2023-03-11T15:27:03.762Z,54.44
2023-03-11T15:29:33.050Z,55.20
2023-03-11T15:32:00.981Z,54.55
2023-03-11T15:34:31.627Z,55.07
2023-03-11T15:37:20.410Z,54.76
2023-03-11T15:39:51.202Z,55.61
2023-03-11T15:42:21.461Z,55.47
2023-03-11T15:45:22.433Z,55.51
2023-03-11T15:47:50.753Z,55.35
2023-03-11T15:50:27.405Z,56.19
2023-03-11T15:52:58.947Z,56.67
2023-03-11T15:55:27.897Z,56.83
2023-03-11T15:58:03.352Z,56.68
2023-03-11T16:00:31.526Z,56.73
2023-03-11T16:02:59.646Z,56.60
2023-03-11T16:05:27.691Z,56.95
2023-03-11T16:07:55.076Z,57.43
2023-03-11T16:10:28.783Z,57.19
2023-03-11T16:12:56.285Z,57.26
2023-03-11T16:15:35.217Z,57.22
2023-03-11T16:18:08.701Z,57.72
2023-03-11T16:20:43.768Z,56.79
2023-03-11T16:23:19.117Z,56.63
2023-03-11T16:25:47.289Z,57.46
2023-03-11T16:28:16.852Z,57.57
2023-03-11T16:30:44.594Z,57.46
2023-03-11T16:33:12.027Z,58.37
2023-03-11T16:35:39.441Z,58.59
2023-03-11T16:38:10.161Z,58.99
2023-03-11T16:40:37.607Z,59.18
2023-03-11T16:43:08.547Z,59.42
2023-03-11T16:45:36.347Z,59.93
2023-03-11T16:48:05.581Z,59.77
2023-03-11T16:50:34.236Z,60.14
2023-03-11T16:53:02.486Z,60.17
2023-03-11T16:55:30.304Z,60.72
2023-03-11T16:57:57.767Z,61.13
2023-03-11T17:00:25.461Z,60.98
2023-03-11T17:02:52.858Z,61.75
2023-03-11T17:05:23.045Z,62.07
2023-03-11T17:07:57.160Z,62.61
2023-03-11T17:10:24.551Z,62.86
2023-03-11T17:12:52.084Z,62.43
2023-03-11T17:15:20.144Z,63.09
2023-03-11T17:17:47.483Z,63.12
2023-03-11T17:20:15.384Z,63.12
2023-03-11T17:22:42.753Z,63.25
2023-03-11T17:25:10.417Z,63.48
2023-03-11T17:27:37.717Z,63.59
2023-03-11T17:30:07.787Z,63.80
2023-03-11T17:32:35.195Z,64.10
2023-03-11T17:35:02.535Z,63.63
2023-03-11T17:37:30.357Z,64.05
2023-03-11T17:39:57.674Z,64.23
2023-03-11T17:42:26.916Z,64.54
2023-03-11T17:44:57.419Z,64.72
2023-03-11T17:47:30.911Z,65.22
2023-03-11T17:49:58.174Z,65.37
2023-03-11T17:52:25.482Z,65.71
2023-03-11T17:54:53.509Z,66.06
2023-03-11T17:57:21.630Z,65.93
2023-03-11T17:59:52.747Z,66.40
2023-03-11T18:02:21.106Z,66.65
2023-03-11T18:04:53.703Z,66.85
2023-03-11T18:07:23.523Z,66.41
2023-03-11T18:09:55.334Z,66.68
2023-03-11T18:12:22.707Z,66.60
2023-03-11T18:14:50.155Z,66.76
2023-03-11T18:17:18.551Z,66.64
2023-03-11T18:19:46.029Z,67.19
2023-03-11T18:22:13.441Z,67.55
2023-03-11T18:24:40.725Z,67.17
2023-03-11T18:27:08.093Z,66.72
2023-03-11T18:29:35.471Z,67.27
2023-03-11T18:32:02.901Z,67.05
2023-03-11T18:34:30.656Z,66.17
2023-03-11T18:36:57.957Z,66.51
2023-03-11T18:39:25.229Z,66.31
2023-03-11T18:41:52.515Z,66.38
2023-03-11T18:44:21.530Z,66.73
2023-03-11T18:46:48.870Z,66.13
2023-03-11T18:49:16.615Z,66.56
2023-03-11T18:51:43.970Z,66.95
2023-03-11T18:54:11.334Z,66.14
2023-03-11T18:56:38.677Z,66.02
2023-03-11T18:59:05.959Z,65.93
2023-03-11T19:01:34.439Z,65.88
2023-03-11T19:04:01.921Z,65.94
2023-03-11T19:06:29.798Z,66.12
2023-03-11T19:08:57.910Z,66.10
2023-03-11T19:11:25.828Z,66.70
2023-03-11T19:13:53.959Z,67.60
2023-03-11T19:16:26.985Z,67.71
2023-03-11T19:18:55.570Z,68.37
2023-03-11T19:21:24.026Z,68.48
2023-03-11T19:23:55.026Z,69.29
2023-03-11T19:26:33.746Z,69.27
2023-03-11T19:29:01.417Z,69.61
2023-03-11T19:31:28.953Z,69.86
2023-03-11T19:33:56.342Z,70.40
2023-03-11T19:36:23.671Z,70.36
2023-03-11T19:38:51.869Z,70.21
2023-03-11T19:41:19.981Z,70.60
2023-03-11T19:43:47.909Z,70.95
2023-03-11T19:46:18.439Z,71.31
2023-03-11T19:48:49.112Z,72.64
2023-03-11T19:51:17.438Z,73.37
2023-03-11T19:53:46.014Z,74.22
2023-03-11T19:56:13.827Z,75.21
2023-03-11T19:58:42.695Z,75.99
2023-03-11T20:01:19.730Z,76.95
2023-03-11T20:03:47.299Z,76.65
2023-03-11T20:06:16.653Z,77.54
2023-03-11T20:08:44.334Z,77.54
2023-03-11T20:11:12.403Z,77.60
2023-03-11T20:13:42.649Z,78.40
2023-03-11T20:16:29.066Z,77.28
2023-03-11T20:18:56.444Z,77.79
2023-03-11T20:21:23.876Z,77.43
2023-03-11T20:23:54.014Z,77.54
2023-03-11T20:26:21.636Z,77.65
2023-03-11T20:28:49.131Z,77.44
2023-03-11T20:31:19.827Z,76.38
2023-03-11T20:33:48.373Z,76.65
2023-03-11T20:36:20.462Z,76.96
2023-03-11T20:38:52.699Z,76.78
2023-03-11T20:41:20.697Z,76.87
2023-03-11T20:43:48.060Z,76.21
2023-03-11T20:46:15.508Z,76.60
2023-03-11T20:48:42.954Z,76.98
2023-03-11T20:51:13.741Z,76.76
2023-03-11T20:53:41.140Z,76.39
2023-03-11T20:56:14.791Z,75.78
2023-03-11T20:58:43.391Z,75.68
2023-03-11T21:01:12.028Z,75.47
2023-03-11T21:03:39.546Z,76.35
2023-03-11T21:06:17.269Z,75.93
2023-03-11T21:08:44.701Z,76.57
2023-03-11T21:11:12.377Z,75.85
2023-03-11T21:13:39.854Z,76.18
2023-03-11T21:16:08.205Z,76.22
2023-03-11T21:18:35.587Z,75.73
2023-03-11T21:21:04.275Z,75.54
2023-03-11T21:23:31.630Z,75.62
2023-03-11T21:26:00.760Z,76.19
2023-03-11T21:28:28.427Z,75.93
2023-03-11T21:30:59.706Z,75.82
2023-03-11T21:33:27.515Z,75.74
2023-03-11T21:35:57.587Z,76.04
2023-03-11T21:38:26.310Z,75.18
2023-03-11T21:40:54.338Z,75.81
2023-03-11T21:43:21.751Z,74.93
2023-03-11T21:45:49.790Z,75.48
2023-03-11T21:48:18.397Z,74.99
2023-03-11T21:50:45.776Z,74.64
2023-03-11T21:53:15.007Z,74.52
2023-03-11T21:55:43.188Z,74.84
2023-03-11T21:58:10.522Z,75.02
2023-03-11T22:00:38.005Z,74.85
2023-03-11T22:03:05.550Z,75.02
2023-03-11T22:05:33.149Z,74.61
2023-03-11T22:08:02.365Z,74.50
2023-03-11T22:10:31.350Z,74.14
2023-03-11T22:12:58.803Z,74.60
2023-03-11T22:15:26.283Z,75.04
2023-03-11T22:17:53.810Z,73.98
2023-03-11T22:20:21.381Z,73.99
2023-03-11T22:22:48.851Z,74.24
2023-03-11T22:25:16.306Z,75.26
2023-03-11T22:27:43.589Z,74.26
2023-03-11T22:30:11.430Z,73.82
2023-03-11T22:32:38.793Z,74.35
2023-03-11T22:35:06.480Z,74.81
2023-03-11T22:37:33.820Z,74.61
2023-03-11T22:40:01.253Z,74.67
2023-03-11T22:42:28.499Z,75.22
2023-03-11T22:44:58.462Z,75.31
2023-03-11T22:47:25.857Z,74.98
2023-03-11T22:49:53.209Z,75.43
2023-03-11T22:52:20.686Z,74.53
2023-03-11T22:54:48.121Z,74.29
2023-03-11T22:57:15.497Z,74.31
2023-03-11T22:59:42.908Z,74.12
2023-03-11T23:02:10.337Z,73.48
2023-03-11T23:04:37.680Z,73.65
2023-03-11T23:07:04.990Z,73.03
2023-03-11T23:09:32.308Z,72.47
2023-03-11T23:12:06.143Z,72.46
2023-03-11T23:14:44.569Z,72.31
2023-03-11T23:17:12.718Z,72.97
2023-03-11T23:19:40.199Z,72.89
2023-03-11T23:22:07.480Z,72.70
2023-03-11T23:24:34.770Z,72.32
2023-03-11T23:27:04.875Z,71.76
2023-03-11T23:29:32.372Z,72.14
2023-03-11T23:31:59.631Z,71.98
2023-03-11T23:34:26.944Z,71.59
2023-03-11T23:36:54.350Z,70.38
2023-03-11T23:39:21.696Z,69.26
2023-03-11T23:41:49.028Z,67.46
2023-03-11T23:44:16.998Z,65.25
2023-03-11T23:46:44.278Z,63.53
2023-03-11T23:49:11.609Z,60.89
2023-03-11T23:51:38.854Z,57.00
2023-03-11T23:54:06.526Z,55.59
2023-03-11T23:56:33.798Z,54.87
2023-03-11T23:59:01.134Z,54.48
